Archival Weather

Chicago O'Hare International

Chicago, Illinois (KORD)

Report from: Sunday, January 21, 2024 9:51 AM CST
Current time: Wednesday, April 24, 2024 2:15 PM CDT

Current weather – Weather history – Daily summaries
Weather forecast

Temperature-11.7°C (10.9°F)
Wind chill-19.7°C (-3.4°F)
Dew point-17.2°C (1.0°F)
Winds 10 kts (5.1 m/s, 11.5 mph) South (190°)
Visibility10 mi. (16.1 km)
Clouds Few clouds 15,000 ft. (4,572 m)
Scattered clouds 25,000 ft. (7,620 m)
Altimeter30.58 in.Hg (1036 mB)
Relative humidity64 %
Density altitude-4,141 ft. (-1,262 m)
Sea-level pressure103.7 kPa (1037 mB, 30.63 in.Hg)
Remarks Automated weather observing station with precipitation discriminator
Flight conditions Visual Meteorological Conditions
Raw dataKORD 211551Z 19010KT 10SM FEW150 SCT250 M12/M17 A3058 RMK AO2 SLP372 T11171172
An error has occurred. This application may no longer respond until reloaded. Reload 🗙